Aviation Digital Data Service (ADDS)

Output produced by METARs form (1018 UTC 01 November 2014)
found at http://aviationweather.gov/adds/metars/
 
KSAN 011008Z 0110/0212 19012KT P6SM -SHRA FEW025 OVC045 
     FM011200 28012KT 6SM -SHRA BR SCT025 OVC040 
     FM011400 27010KT P6SM VCSH BKN035 BKN050 
     FM011800 27011KT P6SM SCT030 BKN045 
     FM020100 28007KT P6SM VCSH SCT020 BKN035